Overseas Milos — V7WR8 — position and weather

sailwx.info

Track history (hours):
 
Tides and Currents Weather Stations Pressure Air Temp Water Temp Dewpoint Dewpoint Depression Visibility Wind Speed Wind Dir Waves Ship Positions

Overseas Milos

Last reported at 2014-Oct-17 16:23 UTC. Time now 2014-Nov-23 13:32 UTC.
Position N 50°33' E 000°11'.
Warning: this ship's position is 36 days out of date.

Length 183 m; draft 12 m.

Type: Tanker. MMSI: 538004376.

Date/timePositionNaut miles runAvg speedWind from/ knotsBaromVisibWave heightAir tempDewpointWater temp
2014-Oct-17 16:23N 50°33' E 000°11'1012.0
2014-Oct-17 15:33N 50°35' E 000°26'1212.2
2014-Oct-17 14:33N 50°40' E 000°44'2713.0
2014-Oct-17 12:29N 50°56' E 001°19'1213.3
2014-Oct-17 11:34N 51°05' E 001°32'1212.4
2014-Oct-17 10:33N 51°14' E 001°46'1212.3
2014-Oct-17 09:33N 51°24' E 001°57'1111.4
2014-Oct-17 08:33N 51°33' E 002°09'1111.2
2014-Oct-17 07:33N 51°42' E 002°20'45212.2
2014-Oct-15 18:28N 57°48' E 010°01'1313.7
2014-Oct-15 17:33N 57°48' E 010°25'1313.2
2014-Oct-15 16:33N 57°47' E 010°49'1313.1
2014-Oct-15 15:33N 57°42' E 011°11'1212.4
2014-Oct-15 14:33N 57°36' E 011°32'5 4.7
2014-Oct-15 13:33N 57°35' E 011°41'0 0.0
2014-Oct-15 12:32N 57°35' E 011°41'0 0.0
2014-Oct-15 11:32N 57°35' E 011°41'0 0.0
2014-Oct-15 10:32N 57°35' E 011°41'0 0.1
2014-Oct-15 09:32N 57°35' E 011°41'7 7.3
2014-Oct-15 08:33N 57°28' E 011°38'1313.4
2014-Oct-15 07:33N 57°15' E 011°40'1414.1
2014-Oct-15 06:33N 57°01' E 011°43'1414.0
2014-Oct-15 05:33N 56°48' E 011°52'12412.3
2014-Oct-14 19:29N 54°48' E 010°50'1011.0
2014-Oct-14 18:33N 54°38' E 010°54'2927.3
2014-Oct-14 17:29N 54°28' E 011°41'2 2.5
2014-Oct-14 16:33N 54°29' E 011°37'1414.1
2014-Oct-14 15:32N 54°26' E 012°01'12 9.4
2014-Oct-14 14:15N 54°36' E 012°14'7713.4
2014-Oct-14 08:32N 55°10' E 014°13'1313.0
2014-Oct-14 07:32N 55°20' E 014°27'1313.0
2014-Oct-14 06:33N 55°29' E 014°44'1313.0
2014-Oct-14 05:33N 55°35' E 015°04'  
2014-Oct-10 12:09N 56°10' E 018°23'913.6
2014-Oct-10 11:28N 56°05' E 018°08'1313.6
2014-Oct-10 10:32N 55°58' E 017°49'1313.4
2014-Oct-10 09:34N 55°53' E 017°27'1813.6
2014-Oct-10 08:13N 55°49' E 016°56'1213.6
2014-Oct-10 07:21N 55°46' E 016°36'1213.6
2014-Oct-10 06:28N 55°43' E 016°15'1413.5
2014-Oct-10 05:27N 55°40' E 015°51'1213.6
2014-Oct-10 04:34N 55°37' E 015°30'1613.7
2014-Oct-10 03:25N 55°28' E 015°08'1313.3
2014-Oct-10 02:28N 55°19' E 014°51'1011.5
2014-Oct-10 01:34N 55°15' E 014°35'1313.3
2014-Oct-10 00:33N 55°11' E 014°12'1913.8
2014-Oct-09 23:10N 55°12' E 013°39'2314.0
2014-Oct-09 21:32N 55°14' E 012°59'1313.2
2014-Oct-09 20:34N 55°19' E 012°38'1211.8
2014-Oct-09 19:34N 55°31' E 012°42'10 9.8
2014-Oct-09 18:34N 55°41' E 012°41'1212.0
2014-Oct-09 17:34N 55°53' E 012°40'1212.1
2014-Oct-09 16:34N 56°05' E 012°36'1110.6
2014-Oct-09 15:34N 56°13' E 012°24'1313.1
2014-Oct-09 14:34N 56°23' E 012°09'1413.5
2014-Oct-09 13:32N 56°35' E 011°57'1312.7
2014-Oct-09 12:31N 56°47' E 011°50'1212.6
2014-Oct-09 11:34N 56°59' E 011°43'1312.7
2014-Oct-09 10:34N 57°11' E 011°35'1313.1
2014-Oct-09 09:34N 57°23' E 011°25'1212.3
2014-Oct-09 08:33N 57°33' E 011°13'1211.8
2014-Oct-09 07:34N 57°41' E 010°57'1111.3
2014-Oct-09 06:34N 57°47' E 010°39'8 8.5
2014-Oct-09 05:33N 57°47' E 010°23'1414.0
2014-Oct-09 04:33N 57°46' E 009°57'  
Track history (hours):
 
Tides and Currents Weather Stations Pressure Air Temp Water Temp Dewpoint Dewpoint Depression Visibility Wind Speed Wind Dir Waves Ship Positions

Overseas Milos

Last reported at 2014-Oct-17 16:23 UTC. Time now 2014-Nov-23 13:32 UTC.
Position N 50°33' E 000°11'.
Warning: this ship's position is 36 days out of date.

Length 183 m; draft 12 m.

Type: Tanker. MMSI: 538004376.

Date/timePositionNaut miles runAvg speedWind from/ knotsBaromVisibWave heightAir tempDewpointWater temp
2014-Oct-17 16:23N 50°33' E 000°11'1012.0
2014-Oct-17 15:33N 50°35' E 000°26'1212.2
2014-Oct-17 14:33N 50°40' E 000°44'2713.0
2014-Oct-17 12:29N 50°56' E 001°19'1213.3
2014-Oct-17 11:34N 51°05' E 001°32'1212.4
2014-Oct-17 10:33N 51°14' E 001°46'1212.3
2014-Oct-17 09:33N 51°24' E 001°57'1111.4
2014-Oct-17 08:33N 51°33' E 002°09'1111.2
2014-Oct-17 07:33N 51°42' E 002°20'45212.2
2014-Oct-15 18:28N 57°48' E 010°01'1313.7
2014-Oct-15 17:33N 57°48' E 010°25'1313.2
2014-Oct-15 16:33N 57°47' E 010°49'1313.1
2014-Oct-15 15:33N 57°42' E 011°11'1212.4
2014-Oct-15 14:33N 57°36' E 011°32'5 4.7
2014-Oct-15 13:33N 57°35' E 011°41'0 0.0
2014-Oct-15 12:32N 57°35' E 011°41'0 0.0
2014-Oct-15 11:32N 57°35' E 011°41'0 0.0
2014-Oct-15 10:32N 57°35' E 011°41'0 0.1
2014-Oct-15 09:32N 57°35' E 011°41'7 7.3
2014-Oct-15 08:33N 57°28' E 011°38'1313.4
2014-Oct-15 07:33N 57°15' E 011°40'1414.1
2014-Oct-15 06:33N 57°01' E 011°43'1414.0
2014-Oct-15 05:33N 56°48' E 011°52'12412.3
2014-Oct-14 19:29N 54°48' E 010°50'1011.0
2014-Oct-14 18:33N 54°38' E 010°54'2927.3
2014-Oct-14 17:29N 54°28' E 011°41'2 2.5
2014-Oct-14 16:33N 54°29' E 011°37'1414.1
2014-Oct-14 15:32N 54°26' E 012°01'12 9.4
2014-Oct-14 14:15N 54°36' E 012°14'7713.4
2014-Oct-14 08:32N 55°10' E 014°13'1313.0
2014-Oct-14 07:32N 55°20' E 014°27'1313.0
2014-Oct-14 06:33N 55°29' E 014°44'1313.0
2014-Oct-14 05:33N 55°35' E 015°04'  
2014-Oct-10 12:09N 56°10' E 018°23'913.6
2014-Oct-10 11:28N 56°05' E 018°08'1313.6
2014-Oct-10 10:32N 55°58' E 017°49'1313.4
2014-Oct-10 09:34N 55°53' E 017°27'1813.6
2014-Oct-10 08:13N 55°49' E 016°56'1213.6
2014-Oct-10 07:21N 55°46' E 016°36'1213.6
2014-Oct-10 06:28N 55°43' E 016°15'1413.5
2014-Oct-10 05:27N 55°40' E 015°51'1213.6
2014-Oct-10 04:34N 55°37' E 015°30'1613.7
2014-Oct-10 03:25N 55°28' E 015°08'1313.3
2014-Oct-10 02:28N 55°19' E 014°51'1011.5
2014-Oct-10 01:34N 55°15' E 014°35'1313.3
2014-Oct-10 00:33N 55°11' E 014°12'1913.8
2014-Oct-09 23:10N 55°12' E 013°39'2314.0
2014-Oct-09 21:32N 55°14' E 012°59'1313.2
2014-Oct-09 20:34N 55°19' E 012°38'1211.8
2014-Oct-09 19:34N 55°31' E 012°42'10 9.8
2014-Oct-09 18:34N 55°41' E 012°41'1212.0
2014-Oct-09 17:34N 55°53' E 012°40'1212.1
2014-Oct-09 16:34N 56°05' E 012°36'1110.6
2014-Oct-09 15:34N 56°13' E 012°24'1313.1
2014-Oct-09 14:34N 56°23' E 012°09'1413.5
2014-Oct-09 13:32N 56°35' E 011°57'1312.7
2014-Oct-09 12:31N 56°47' E 011°50'1212.6
2014-Oct-09 11:34N 56°59' E 011°43'1312.7
2014-Oct-09 10:34N 57°11' E 011°35'1313.1
2014-Oct-09 09:34N 57°23' E 011°25'1212.3
2014-Oct-09 08:33N 57°33' E 011°13'1211.8
2014-Oct-09 07:34N 57°41' E 010°57'1111.3
2014-Oct-09 06:34N 57°47' E 010°39'8 8.5
2014-Oct-09 05:33N 57°47' E 010°23'1414.0
2014-Oct-09 04:33N 57°46' E 009°57'  

Dump ship's entire track history